Flight Track Log - Related Links

Times and Time Zones

All times are in EST time to prevent confusion due to time zone crossing. See the EJA829P flight status page for this flight to view local times or setup timezone preferences in your user account.

Time Position Orientation Groundspeed Altitude Reporting Facility
EST Latitude Longitude Course Direction KTS MPH feet Rate Location/Type
Fri 09:48:24 AM 41.5306 -83.7908 113° Southeast 228 262 5,200  Level Cleveland Center
Fri 09:49:26 AM 41.4944 -83.6778 113° Southeast 279 321 9,800 3,290 Climbing Cleveland Center
Fri 09:50:28 AM 41.4600 -83.5708 113° Southeast 313 360 12,000 2,832 Climbing Cleveland Center
Fri 09:51:31 AM 41.4225 -83.4544 113° Southeast 341 392 15,700 2,400 Climbing Cleveland Center
Fri 09:52:33 AM 41.3831 -83.3333 113° Southeast 355 409 17,000 677 Climbing Cleveland Center
Fri 09:53:35 AM 41.3428 -83.2128 114° Southeast 358 412 17,100 1,113 Climbing Cleveland Center
Fri 09:54:37 AM 41.2978 -83.0756 114° Southeast 370 426 19,300 2,274 Climbing Cleveland Center
Fri 09:55:39 AM 41.2569 -82.9492 113° Southeast 370 426 21,800 2,565 Climbing Cleveland Center
Fri 09:56:41 AM 41.2044 -82.7911 114° Southeast 393 452 24,600 2,439 Climbing Cleveland Center
Fri 09:57:42 AM 41.1725 -82.6436 106° East 411 473 26,800 2,390 Climbing Cleveland Center
Fri 09:58:44 AM 41.1433 -82.4914 104° East 420 483 29,500 2,468 Climbing Cleveland Center
Fri 09:59:46 AM 41.1053 -82.3447 109° East 417 480 31,900 2,323 Climbing Cleveland Center
Fri 10:00:48 AM 41.0525 -82.2078 117° Southeast 415 478 34,300 1,500 Climbing Cleveland Center
Fri 10:01:50 AM 40.9969 -82.0683 118° Southeast 424 488 35,000 339 Climbing Cleveland Center
Fri 10:02:52 AM 40.9364 -81.9169 118° Southeast 460 529 35,000 -629 Level Cleveland Center
Fri 10:03:54 AM 40.8586 -81.7428 121° Southeast 464 534 33,700 -968 Descending Cleveland Center
Fri 10:04:56 AM 40.7775 -81.6236 132° Southeast 436 502 33,000 -339 Descending Cleveland Center
Fri 10:05:58 AM 40.6975 -81.5044 132° Southeast 432 497 33,000  Level Cleveland Center
Fri 10:07:00 AM 40.6164 -81.3833 131° Southeast 437 503 33,000  Level Cleveland Center
Fri 10:08:02 AM 40.5389 -81.2694 132° Southeast 438 504 33,000  Level Cleveland Center
Fri 10:09:04 AM 40.4428 -81.1278 132° Southeast 435 501 33,000  Level Cleveland Center
Fri 10:10:06 AM 40.3542 -81.0258 139° Southeast 431 496 33,000 -581 Level Cleveland Center
Fri 10:11:08 AM 40.2558 -80.9444 148° Southeast 419 482 31,800 -968 Descending Cleveland Center
Fri 10:12:10 AM 40.1536 -80.8622 148° Southeast 430 495 31,000 -387 Descending Cleveland Center
Fri 10:13:12 AM 40.0519 -80.7797 148° Southeast 433 498 31,000  Level Cleveland Center
Fri 10:14:14 AM 39.9294 -80.6806 148° Southeast 435 501 31,000  Level Cleveland Center
Fri 10:15:16 AM 39.8278 -80.5983 148° Southeast 433 498 31,000  Level Cleveland Center
Fri 10:16:18 AM 39.7256 -80.5172 149° Southeast 433 498 31,000  Level Cleveland Center
Fri 10:17:20 AM 39.6236 -80.4361 148° Southeast 432 497 31,000  Level Cleveland Center
Fri 10:18:22 AM 39.5219 -80.3558 149° Southeast 431 496 31,000  Level Cleveland Center
Fri 10:19:11 AM 39.4386 -80.2892 148° Southeast 426 490 31,000  Level Washington Center
Fri 10:20:11 AM 39.3356 -80.2072 148° Southeast 431 496 31,000  Level Washington Center
Fri 10:21:12 AM 39.2344 -80.1258 148° Southeast 431 496 31,000  Level Washington Center
Fri 10:22:13 AM 39.1311 -80.0444 149° Southeast 426 490 31,000  Level Washington Center
Fri 10:23:10 AM 39.0114 -79.9594 151° Southeast 433 498 31,000 -559 Level Washington Center
Fri 10:24:11 AM 38.9178 -79.8900 150° Southeast 433 498 29,900 -1,377 Descending Washington Center
Fri 10:25:12 AM 38.8186 -79.8122 149° Southeast 428 493 28,200 -1,426 Descending Washington Center
Fri 10:26:13 AM 38.7150 -79.7317 149° Southeast 428 493 27,000 -595 Descending Washington Center
Fri 10:27:13 AM 38.6133 -79.6544 149° Southeast 428 493 27,000  Level Washington Center
Fri 10:28:13 AM 38.5036 -79.5661 148° Southeast 428 493 27,000 -559 Level Washington Center
Fri 10:29:11 AM 38.4019 -79.4892 149° Southeast 428 493 25,900 -1,373 Descending Washington Center
Fri 10:30:11 AM 38.3003 -79.4122 149° Southeast 428 493 24,300 -1,150 Descending Washington Center
Fri 10:31:11 AM 38.2025 -79.3358 148° Southeast 428 493 23,600 -1,000 Descending Washington Center
Fri 10:32:11 AM 38.1067 -79.2625 149° Southeast 423 487 22,300 -1,240 Descending Washington Center
Fri 10:33:12 AM 38.0231 -79.1978 149° Southeast 404 465 21,100 -645 Descending Washington Center
Fri 10:34:12 AM 37.9294 -79.1247 148° Southeast 398 458 21,000 -50 Descending Washington Center
Fri 10:35:12 AM 37.8725 -79.0011 120° Southeast 387 445 21,000 -50 Level Washington Center
Fri 10:36:13 AM 37.8344 -78.8653 109° East 387 445 20,900 -1,059 Descending Washington Center
Fri 10:37:11 AM 37.7944 -78.7322 111° Southeast 399 459 18,900 -2,168 Descending Washington Center
Fri 10:38:12 AM 37.7542 -78.5886 109° East 399 459 16,600 -2,164 Descending Washington Center
Fri 10:39:13 AM 37.7197 -78.4664 110° East 385 443 14,500 -2,017 Descending Washington Center
Fri 10:40:11 AM 37.6847 -78.3497 111° Southeast 371 427 12,600 -1,866 Descending Washington Center
Fri 10:41:12 AM 37.6500 -78.2331 111° Southeast 358 412 10,800 -1,623 Descending Washington Center
Fri 10:42:13 AM 37.6206 -78.1403 112° Southeast 337 388 9,300 -893 Descending Washington Center
Fri 10:43:13 AM 37.5914 -78.0422 111° Southeast 314 361 9,000 -1,017 Descending Washington Center
Fri 10:44:11 AM 37.5933 -77.9403 89° East 288 331 7,300 -1,008 Descending Washington Center
Fri 10:45:12 AM 37.6100 -77.8386 78° East 288 331 7,000 -942 Descending Washington Center
Fri 10:46:12 AM 37.6244 -77.7367 80° East 288 331 5,400 -1,587 Descending Washington Center
Fri 10:47:13 AM 37.6364 -77.6372 81° East 294 338 3,800 -1,240 Descending Washington Center
Fri 10:48:13 AM 37.6275 -77.5453 97° East 276 318 2,900 -864 Descending Washington Center
Fri 10:49:11 AM 37.6206 -77.4639 96° East 253 291 2,100 -403 Descending Washington Center
Fri 10:50:12 AM 37.6028 -77.3978 109° East 221 254 2,100 -224 Level Washington Center
Fri 10:51:52 AM 37.5500 -77.3167 129° Southeast 135 155 1,500 -600 Descending Potomac TRACON
Fri 10:52:52 AM 37.5333 -77.3167 180° South 104 120 500 -1,000 Descending Potomac TRACON
Fri 10:54:00 AM 37.5000 -77.3167 117° Southeast  Level FlightAware Approximate
Fri 11:01:00 AM 37.5052 -77.3197 117° Southeast  Level Estimated

Login

Don't have an account? Register now (free) for customized features, flight alerts, and more!